sensor_id;sensor_type;location;lat;lon;timestamp;temperature;humidity
13591;DHT22;6866;50.778;7.206;2022-09-09T00:01:28;18.10;75.40
13591;DHT22;6866;50.778;7.206;2022-09-09T00:04:05;18.10;76.50
13591;DHT22;6866;50.778;7.206;2022-09-09T00:06:45;18.00;75.90
13591;DHT22;6866;50.778;7.206;2022-09-09T00:09:17;17.90;76.20
13591;DHT22;6866;50.778;7.206;2022-09-09T00:11:47;17.90;77.50
13591;DHT22;6866;50.778;7.206;2022-09-09T00:14:43;18.00;77.30
13591;DHT22;6866;50.778;7.206;2022-09-09T00:20:28;17.90;77.60
13591;DHT22;6866;50.778;7.206;2022-09-09T00:23:17;17.80;78.60
13591;DHT22;6866;50.778;7.206;2022-09-09T00:26:16;17.80;78.70
13591;DHT22;6866;50.778;7.206;2022-09-09T00:31:30;17.70;78.30
13591;DHT22;6866;50.778;7.206;2022-09-09T00:34:03;17.70;78.30
13591;DHT22;6866;50.778;7.206;2022-09-09T00:36:31;17.70;78.40
13591;DHT22;6866;50.778;7.206;2022-09-09T00:39:01;17.60;78.70
13591;DHT22;6866;50.778;7.206;2022-09-09T00:44:32;17.60;78.60
13591;DHT22;6866;50.778;7.206;2022-09-09T00:55:49;17.50;79.50
13591;DHT22;6866;50.778;7.206;2022-09-09T00:58:16;17.50;80.20
13591;DHT22;6866;50.778;7.206;2022-09-09T01:12:01;17.40;80.70
13591;DHT22;6866;50.778;7.206;2022-09-09T01:17:13;17.50;80.80
13591;DHT22;6866;50.778;7.206;2022-09-09T01:27:40;17.60;79.30
13591;DHT22;6866;50.778;7.206;2022-09-09T01:30:15;17.60;78.70
13591;DHT22;6866;50.778;7.206;2022-09-09T01:32:50;17.60;78.80
13591;DHT22;6866;50.778;7.206;2022-09-09T01:38:14;17.70;78.80
13591;DHT22;6866;50.778;7.206;2022-09-09T01:40:40;17.70;79.40
13591;DHT22;6866;50.778;7.206;2022-09-09T01:43:06;17.60;78.70
13591;DHT22;6866;50.778;7.206;2022-09-09T01:45:33;17.70;78.70
13591;DHT22;6866;50.778;7.206;2022-09-09T01:47:59;17.70;78.30
13591;DHT22;6866;50.778;7.206;2022-09-09T01:50:26;17.70;78.20
13591;DHT22;6866;50.778;7.206;2022-09-09T01:52:57;17.60;78.60
13591;DHT22;6866;50.778;7.206;2022-09-09T01:55:38;17.60;78.30
13591;DHT22;6866;50.778;7.206;2022-09-09T02:00:56;17.60;78.30
13591;DHT22;6866;50.778;7.206;2022-09-09T02:03:29;17.60;78.50
13591;DHT22;6866;50.778;7.206;2022-09-09T02:06:25;17.60;78.00
13591;DHT22;6866;50.778;7.206;2022-09-09T02:08:57;17.60;78.20
13591;DHT22;6866;50.778;7.206;2022-09-09T02:11:27;17.60;78.70
13591;DHT22;6866;50.778;7.206;2022-09-09T02:14:01;17.60;77.60
13591;DHT22;6866;50.778;7.206;2022-09-09T02:19:10;17.60;77.80
13591;DHT22;6866;50.778;7.206;2022-09-09T02:21:40;17.60;78.10
13591;DHT22;6866;50.778;7.206;2022-09-09T02:24:08;17.60;77.70
13591;DHT22;6866;50.778;7.206;2022-09-09T02:26:39;17.60;77.70
13591;DHT22;6866;50.778;7.206;2022-09-09T02:29:10;17.60;76.80
13591;DHT22;6866;50.778;7.206;2022-09-09T02:31:36;17.60;77.20
13591;DHT22;6866;50.778;7.206;2022-09-09T02:34:05;17.60;77.40
13591;DHT22;6866;50.778;7.206;2022-09-09T02:36:34;17.70;77.60
13591;DHT22;6866;50.778;7.206;2022-09-09T02:39:00;17.70;76.30
13591;DHT22;6866;50.778;7.206;2022-09-09T02:41:34;17.70;76.40
13591;DHT22;6866;50.778;7.206;2022-09-09T02:44:01;17.70;76.50
13591;DHT22;6866;50.778;7.206;2022-09-09T02:49:25;17.70;75.70
13591;DHT22;6866;50.778;7.206;2022-09-09T02:52:08;17.70;75.70
13591;DHT22;6866;50.778;7.206;2022-09-09T02:54:35;17.70;76.20
13591;DHT22;6866;50.778;7.206;2022-09-09T02:57:19;17.70;76.40
13591;DHT22;6866;50.778;7.206;2022-09-09T02:59:46;17.70;76.20
13591;DHT22;6866;50.778;7.206;2022-09-09T03:02:12;17.70;76.10
13591;DHT22;6866;50.778;7.206;2022-09-09T03:04:39;17.70;76.00
13591;DHT22;6866;50.778;7.206;2022-09-09T03:07:05;17.70;76.30
13591;DHT22;6866;50.778;7.206;2022-09-09T03:09:31;17.70;76.20
13591;DHT22;6866;50.778;7.206;2022-09-09T03:11:58;17.70;76.40
13591;DHT22;6866;50.778;7.206;2022-09-09T03:14:23;17.60;76.70
13591;DHT22;6866;50.778;7.206;2022-09-09T03:16:52;17.70;77.00
13591;DHT22;6866;50.778;7.206;2022-09-09T03:19:18;17.70;76.50
13591;DHT22;6866;50.778;7.206;2022-09-09T03:21:45;17.70;76.50
13591;DHT22;6866;50.778;7.206;2022-09-09T03:24:11;17.70;77.40
13591;DHT22;6866;50.778;7.206;2022-09-09T03:26:37;17.70;77.00
13591;DHT22;6866;50.778;7.206;2022-09-09T03:29:03;17.70;76.50
13591;DHT22;6866;50.778;7.206;2022-09-09T03:31:32;17.70;76.80
13591;DHT22;6866;50.778;7.206;2022-09-09T03:33:58;17.70;76.60
13591;DHT22;6866;50.778;7.206;2022-09-09T03:36:27;17.70;76.20
13591;DHT22;6866;50.778;7.206;2022-09-09T03:38:53;17.60;76.60
13591;DHT22;6866;50.778;7.206;2022-09-09T03:41:22;17.60;77.10
13591;DHT22;6866;50.778;7.206;2022-09-09T03:43:50;17.60;77.20
13591;DHT22;6866;50.778;7.206;2022-09-09T03:46:17;17.60;76.60
13591;DHT22;6866;50.778;7.206;2022-09-09T03:48:42;17.60;77.00
13591;DHT22;6866;50.778;7.206;2022-09-09T03:51:08;17.70;77.10
13591;DHT22;6866;50.778;7.206;2022-09-09T03:53:34;17.70;77.00
13591;DHT22;6866;50.778;7.206;2022-09-09T03:55:59;17.70;76.50
13591;DHT22;6866;50.778;7.206;2022-09-09T03:58:26;17.70;76.80
13591;DHT22;6866;50.778;7.206;2022-09-09T04:01:19;17.70;76.70
13591;DHT22;6866;50.778;7.206;2022-09-09T04:03:44;17.60;77.00
13591;DHT22;6866;50.778;7.206;2022-09-09T04:06:11;17.60;76.90
13591;DHT22;6866;50.778;7.206;2022-09-09T04:08:38;17.60;76.90
13591;DHT22;6866;50.778;7.206;2022-09-09T04:11:04;17.60;76.60
13591;DHT22;6866;50.778;7.206;2022-09-09T04:13:32;17.70;76.60
13591;DHT22;6866;50.778;7.206;2022-09-09T04:15:59;17.70;76.60
13591;DHT22;6866;50.778;7.206;2022-09-09T04:18:25;17.70;76.40
13591;DHT22;6866;50.778;7.206;2022-09-09T04:20:52;17.60;76.70
13591;DHT22;6866;50.778;7.206;2022-09-09T04:23:18;17.60;76.90
13591;DHT22;6866;50.778;7.206;2022-09-09T04:25:46;17.60;76.70
13591;DHT22;6866;50.778;7.206;2022-09-09T04:28:13;17.70;76.30
13591;DHT22;6866;50.778;7.206;2022-09-09T04:30:39;17.70;77.00
13591;DHT22;6866;50.778;7.206;2022-09-09T04:33:06;17.60;77.50
13591;DHT22;6866;50.778;7.206;2022-09-09T04:35:32;17.60;76.20
13591;DHT22;6866;50.778;7.206;2022-09-09T04:37:58;17.60;76.40
13591;DHT22;6866;50.778;7.206;2022-09-09T04:40:24;17.60;76.80
13591;DHT22;6866;50.778;7.206;2022-09-09T04:42:50;17.50;76.70
13591;DHT22;6866;50.778;7.206;2022-09-09T04:45:16;17.60;76.50
13591;DHT22;6866;50.778;7.206;2022-09-09T04:47:42;17.60;76.80
13591;DHT22;6866;50.778;7.206;2022-09-09T04:50:08;17.50;77.00
13591;DHT22;6866;50.778;7.206;2022-09-09T04:52:34;17.50;76.70
13591;DHT22;6866;50.778;7.206;2022-09-09T04:55:01;17.50;76.90
13591;DHT22;6866;50.778;7.206;2022-09-09T04:57:26;17.50;76.60
13591;DHT22;6866;50.778;7.206;2022-09-09T04:59:52;17.50;76.90
13591;DHT22;6866;50.778;7.206;2022-09-09T05:02:18;17.60;76.90
13591;DHT22;6866;50.778;7.206;2022-09-09T05:04:43;17.60;78.00
13591;DHT22;6866;50.778;7.206;2022-09-09T05:07:09;17.50;77.10
13591;DHT22;6866;50.778;7.206;2022-09-09T05:09:35;17.50;77.20
13591;DHT22;6866;50.778;7.206;2022-09-09T05:12:01;17.50;77.10
13591;DHT22;6866;50.778;7.206;2022-09-09T05:14:28;17.50;76.90
13591;DHT22;6866;50.778;7.206;2022-09-09T05:16:54;17.50;76.70
13591;DHT22;6866;50.778;7.206;2022-09-09T05:19:21;17.50;76.50
13591;DHT22;6866;50.778;7.206;2022-09-09T05:21:47;17.50;76.40
13591;DHT22;6866;50.778;7.206;2022-09-09T05:24:13;17.50;76.10
13591;DHT22;6866;50.778;7.206;2022-09-09T05:26:38;17.60;76.30
13591;DHT22;6866;50.778;7.206;2022-09-09T05:29:04;17.50;76.10
13591;DHT22;6866;50.778;7.206;2022-09-09T05:31:30;17.50;75.80
13591;DHT22;6866;50.778;7.206;2022-09-09T05:33:56;17.50;75.60
13591;DHT22;6866;50.778;7.206;2022-09-09T05:36:22;17.60;75.70
13591;DHT22;6866;50.778;7.206;2022-09-09T05:38:49;17.60;75.40
13591;DHT22;6866;50.778;7.206;2022-09-09T05:41:16;17.60;76.30
13591;DHT22;6866;50.778;7.206;2022-09-09T05:43:43;17.60;75.10
13591;DHT22;6866;50.778;7.206;2022-09-09T05:46:20;17.60;75.80
13591;DHT22;6866;50.778;7.206;2022-09-09T05:48:47;17.70;75.30
13591;DHT22;6866;50.778;7.206;2022-09-09T05:51:24;17.70;74.60
13591;DHT22;6866;50.778;7.206;2022-09-09T05:53:52;17.70;74.80
13591;DHT22;6866;50.778;7.206;2022-09-09T05:56:23;17.70;74.70
13591;DHT22;6866;50.778;7.206;2022-09-09T05:58:50;17.70;74.90
13591;DHT22;6866;50.778;7.206;2022-09-09T06:01:19;17.60;74.70
13591;DHT22;6866;50.778;7.206;2022-09-09T06:03:46;17.70;74.90
13591;DHT22;6866;50.778;7.206;2022-09-09T06:06:18;17.70;75.20
13591;DHT22;6866;50.778;7.206;2022-09-09T06:08:46;17.70;75.00
13591;DHT22;6866;50.778;7.206;2022-09-09T06:11:14;17.70;75.40
13591;DHT22;6866;50.778;7.206;2022-09-09T06:13:40;17.70;75.50
13591;DHT22;6866;50.778;7.206;2022-09-09T06:16:09;17.70;76.00
13591;DHT22;6866;50.778;7.206;2022-09-09T06:18:37;17.80;76.30
13591;DHT22;6866;50.778;7.206;2022-09-09T06:21:05;17.90;76.10
13591;DHT22;6866;50.778;7.206;2022-09-09T06:23:32;17.90;75.90
13591;DHT22;6866;50.778;7.206;2022-09-09T06:28:31;18.10;75.30
13591;DHT22;6866;50.778;7.206;2022-09-09T06:30:59;18.40;74.20
13591;DHT22;6866;50.778;7.206;2022-09-09T06:33:25;18.50;72.60
13591;DHT22;6866;50.778;7.206;2022-09-09T06:35:54;18.70;72.80
13591;DHT22;6866;50.778;7.206;2022-09-09T06:38:20;18.70;70.60
13591;DHT22;6866;50.778;7.206;2022-09-09T06:40:53;18.70;71.00
13591;DHT22;6866;50.778;7.206;2022-09-09T06:43:23;19.10;69.80
13591;DHT22;6866;50.778;7.206;2022-09-09T06:45:56;19.30;67.10
13591;DHT22;6866;50.778;7.206;2022-09-09T06:48:21;19.90;66.70
13591;DHT22;6866;50.778;7.206;2022-09-09T06:50:47;22.20;60.10
13591;DHT22;6866;50.778;7.206;2022-09-09T06:53:16;24.20;54.20
13591;DHT22;6866;50.778;7.206;2022-09-09T06:55:45;25.70;49.40
13591;DHT22;6866;50.778;7.206;2022-09-09T06:58:10;26.80;46.00
13591;DHT22;6866;50.778;7.206;2022-09-09T07:00:36;26.10;43.90
13591;DHT22;6866;50.778;7.206;2022-09-09T07:03:04;24.60;46.10
13591;DHT22;6866;50.778;7.206;2022-09-09T07:05:29;23.00;51.70
13591;DHT22;6866;50.778;7.206;2022-09-09T07:07:55;22.00;55.10
13591;DHT22;6866;50.778;7.206;2022-09-09T07:10:20;22.50;55.40
13591;DHT22;6866;50.778;7.206;2022-09-09T07:12:50;25.50;48.10
13591;DHT22;6866;50.778;7.206;2022-09-09T07:15:16;27.80;42.70
13591;DHT22;6866;50.778;7.206;2022-09-09T07:17:44;29.30;39.40
13591;DHT22;6866;50.778;7.206;2022-09-09T07:20:09;29.90;37.30
13591;DHT22;6866;50.778;7.206;2022-09-09T07:22:35;28.70;36.90
13591;DHT22;6866;50.778;7.206;2022-09-09T07:25:00;29.50;37.90
13591;DHT22;6866;50.778;7.206;2022-09-09T07:27:27;28.80;36.40
13591;DHT22;6866;50.778;7.206;2022-09-09T07:29:53;29.00;36.80
13591;DHT22;6866;50.778;7.206;2022-09-09T07:32:19;29.00;35.40
13591;DHT22;6866;50.778;7.206;2022-09-09T07:34:46;29.70;34.70
13591;DHT22;6866;50.778;7.206;2022-09-09T07:37:12;30.40;35.20
13591;DHT22;6866;50.778;7.206;2022-09-09T07:39:39;31.00;34.10
13591;DHT22;6866;50.778;7.206;2022-09-09T07:42:05;31.40;32.40
13591;DHT22;6866;50.778;7.206;2022-09-09T07:44:30;31.20;33.00
13591;DHT22;6866;50.778;7.206;2022-09-09T07:47:00;30.60;32.90
13591;DHT22;6866;50.778;7.206;2022-09-09T07:49:26;29.10;34.60
13591;DHT22;6866;50.778;7.206;2022-09-09T07:51:51;27.30;38.20
13591;DHT22;6866;50.778;7.206;2022-09-09T07:54:18;25.80;41.60
13591;DHT22;6866;50.778;7.206;2022-09-09T07:56:45;24.60;43.90
13591;DHT22;6866;50.778;7.206;2022-09-09T07:59:12;24.20;45.50
13591;DHT22;6866;50.778;7.206;2022-09-09T08:01:45;23.50;46.00
13591;DHT22;6866;50.778;7.206;2022-09-09T08:04:14;23.00;46.90
13591;DHT22;6866;50.778;7.206;2022-09-09T08:06:42;23.10;48.50
13591;DHT22;6866;50.778;7.206;2022-09-09T08:09:09;22.50;48.80
13591;DHT22;6866;50.778;7.206;2022-09-09T08:11:35;22.40;50.00
13591;DHT22;6866;50.778;7.206;2022-09-09T08:14:02;22.10;50.10
13591;DHT22;6866;50.778;7.206;2022-09-09T08:16:33;21.90;50.90
13591;DHT22;6866;50.778;7.206;2022-09-09T08:19:02;21.90;50.90
13591;DHT22;6866;50.778;7.206;2022-09-09T08:21:29;21.90;51.80
13591;DHT22;6866;50.778;7.206;2022-09-09T08:23:57;21.90;51.50
13591;DHT22;6866;50.778;7.206;2022-09-09T08:26:31;21.90;51.50
13591;DHT22;6866;50.778;7.206;2022-09-09T08:28:59;21.80;52.00
13591;DHT22;6866;50.778;7.206;2022-09-09T08:31:26;21.80;52.40
13591;DHT22;6866;50.778;7.206;2022-09-09T08:33:53;22.00;51.90
13591;DHT22;6866;50.778;7.206;2022-09-09T08:36:20;22.60;50.20
13591;DHT22;6866;50.778;7.206;2022-09-09T08:38:47;22.80;49.80
13591;DHT22;6866;50.778;7.206;2022-09-09T08:52:18;22.00;50.70
13591;DHT22;6866;50.778;7.206;2022-09-09T08:54:44;23.30;49.50
13591;DHT22;6866;50.778;7.206;2022-09-09T08:57:16;23.70;48.20
13591;DHT22;6866;50.778;7.206;2022-09-09T08:59:42;23.10;47.20
13591;DHT22;6866;50.778;7.206;2022-09-09T09:02:15;23.20;48.50
13591;DHT22;6866;50.778;7.206;2022-09-09T09:07:31;22.80;49.30
13591;DHT22;6866;50.778;7.206;2022-09-09T09:10:09;22.80;49.80
13591;DHT22;6866;50.778;7.206;2022-09-09T09:12:41;22.60;49.20
13591;DHT22;6866;50.778;7.206;2022-09-09T09:15:15;22.50;49.00
13591;DHT22;6866;50.778;7.206;2022-09-09T09:17:42;22.50;48.50
13591;DHT22;6866;50.778;7.206;2022-09-09T09:20:12;23.30;46.90
13591;DHT22;6866;50.778;7.206;2022-09-09T09:25:27;24.30;43.80
13591;DHT22;6866;50.778;7.206;2022-09-09T09:28:17;24.50;43.60
13591;DHT22;6866;50.778;7.206;2022-09-09T09:36:00;24.00;45.10
13591;DHT22;6866;50.778;7.206;2022-09-09T09:38:28;23.70;44.80
13591;DHT22;6866;50.778;7.206;2022-09-09T09:40:55;23.50;46.00
13591;DHT22;6866;50.778;7.206;2022-09-09T09:45:51;23.00;45.40
13591;DHT22;6866;50.778;7.206;2022-09-09T09:48:17;22.70;45.80
13591;DHT22;6866;50.778;7.206;2022-09-09T09:50:55;22.40;46.30
13591;DHT22;6866;50.778;7.206;2022-09-09T09:53:27;22.70;47.70
13591;DHT22;6866;50.778;7.206;2022-09-09T09:55:57;22.90;46.20
13591;DHT22;6866;50.778;7.206;2022-09-09T09:58:24;22.60;45.70
13591;DHT22;6866;50.778;7.206;2022-09-09T10:00:52;22.50;47.30
13591;DHT22;6866;50.778;7.206;2022-09-09T10:03:23;22.20;46.80
13591;DHT22;6866;50.778;7.206;2022-09-09T10:05:49;22.50;47.20
13591;DHT22;6866;50.778;7.206;2022-09-09T10:08:16;22.80;46.80
13591;DHT22;6866;50.778;7.206;2022-09-09T10:32:02;23.60;45.10
13591;DHT22;6866;50.778;7.206;2022-09-09T10:40:12;23.00;44.60
13591;DHT22;6866;50.778;7.206;2022-09-09T10:42:39;23.10;45.40
13591;DHT22;6866;50.778;7.206;2022-09-09T10:45:20;23.00;45.50
13591;DHT22;6866;50.778;7.206;2022-09-09T10:50:50;22.80;45.30
13591;DHT22;6866;50.778;7.206;2022-09-09T10:55:45;22.50;45.70
13591;DHT22;6866;50.778;7.206;2022-09-09T10:58:38;22.80;45.80
13591;DHT22;6866;50.778;7.206;2022-09-09T11:01:25;22.80;45.80
13591;DHT22;6866;50.778;7.206;2022-09-09T11:03:57;22.80;45.00
13591;DHT22;6866;50.778;7.206;2022-09-09T11:06:49;22.80;45.40
13591;DHT22;6866;50.778;7.206;2022-09-09T11:09:19;22.90;45.60
13591;DHT22;6866;50.778;7.206;2022-09-09T11:14:32;23.00;46.20
13591;DHT22;6866;50.778;7.206;2022-09-09T11:17:02;23.40;44.90
13591;DHT22;6866;50.778;7.206;2022-09-09T11:19:40;23.90;43.80
13591;DHT22;6866;50.778;7.206;2022-09-09T11:22:07;24.60;43.10
13591;DHT22;6866;50.778;7.206;2022-09-09T11:24:41;24.20;42.70
13591;DHT22;6866;50.778;7.206;2022-09-09T11:27:15;23.40;44.00
13591;DHT22;6866;50.778;7.206;2022-09-09T11:30:04;23.20;44.60
13591;DHT22;6866;50.778;7.206;2022-09-09T11:32:56;23.10;45.20
13591;DHT22;6866;50.778;7.206;2022-09-09T11:38:46;23.90;46.00
13591;DHT22;6866;50.778;7.206;2022-09-09T11:41:13;24.00;44.20
13591;DHT22;6866;50.778;7.206;2022-09-09T11:43:45;23.80;43.50
13591;DHT22;6866;50.778;7.206;2022-09-09T11:46:13;24.10;43.20
13591;DHT22;6866;50.778;7.206;2022-09-09T11:48:42;24.50;42.20
13591;DHT22;6866;50.778;7.206;2022-09-09T11:53:55;24.50;42.50
13591;DHT22;6866;50.778;7.206;2022-09-09T11:56:32;24.00;42.30
13591;DHT22;6866;50.778;7.206;2022-09-09T11:59:02;23.90;43.00
13591;DHT22;6866;50.778;7.206;2022-09-09T12:01:42;23.80;42.50
13591;DHT22;6866;50.778;7.206;2022-09-09T12:06:45;23.70;42.90
13591;DHT22;6866;50.778;7.206;2022-09-09T12:09:19;23.70;43.40
13591;DHT22;6866;50.778;7.206;2022-09-09T12:11:46;23.70;43.10
13591;DHT22;6866;50.778;7.206;2022-09-09T12:14:34;23.50;43.70
13591;DHT22;6866;50.778;7.206;2022-09-09T12:17:24;23.60;43.40
13591;DHT22;6866;50.778;7.206;2022-09-09T12:20:03;23.50;43.50
13591;DHT22;6866;50.778;7.206;2022-09-09T12:27:40;23.40;43.60
13591;DHT22;6866;50.778;7.206;2022-09-09T12:30:11;23.10;43.40
13591;DHT22;6866;50.778;7.206;2022-09-09T12:32:37;23.10;43.50
13591;DHT22;6866;50.778;7.206;2022-09-09T12:35:10;23.10;43.70
13591;DHT22;6866;50.778;7.206;2022-09-09T12:37:50;23.00;44.40
13591;DHT22;6866;50.778;7.206;2022-09-09T12:40:34;23.00;44.70
13591;DHT22;6866;50.778;7.206;2022-09-09T12:43:21;23.10;45.50
13591;DHT22;6866;50.778;7.206;2022-09-09T12:45:48;23.20;44.80
13591;DHT22;6866;50.778;7.206;2022-09-09T12:48:18;23.10;45.60
13591;DHT22;6866;50.778;7.206;2022-09-09T12:50:49;23.10;45.50
13591;DHT22;6866;50.778;7.206;2022-09-09T12:53:25;23.00;45.40
13591;DHT22;6866;50.778;7.206;2022-09-09T12:56:01;23.00;44.80
13591;DHT22;6866;50.778;7.206;2022-09-09T12:58:30;22.90;45.10
13591;DHT22;6866;50.778;7.206;2022-09-09T13:01:01;22.90;44.50
13591;DHT22;6866;50.778;7.206;2022-09-09T13:03:31;22.80;45.60
13591;DHT22;6866;50.778;7.206;2022-09-09T13:06:17;22.60;45.70
13591;DHT22;6866;50.778;7.206;2022-09-09T13:08:44;22.50;45.90
13591;DHT22;6866;50.778;7.206;2022-09-09T13:11:12;22.60;46.10
13591;DHT22;6866;50.778;7.206;2022-09-09T13:13:42;22.50;46.10
13591;DHT22;6866;50.778;7.206;2022-09-09T13:16:30;22.60;46.20
13591;DHT22;6866;50.778;7.206;2022-09-09T13:19:00;22.50;46.80
13591;DHT22;6866;50.778;7.206;2022-09-09T13:21:39;22.40;46.30
13591;DHT22;6866;50.778;7.206;2022-09-09T13:24:21;22.60;46.00
13591;DHT22;6866;50.778;7.206;2022-09-09T13:27:00;22.70;45.80
13591;DHT22;6866;50.778;7.206;2022-09-09T13:29:27;22.70;45.30
13591;DHT22;6866;50.778;7.206;2022-09-09T13:31:53;22.60;45.90
13591;DHT22;6866;50.778;7.206;2022-09-09T13:34:29;22.60;46.40
13591;DHT22;6866;50.778;7.206;2022-09-09T13:37:00;22.50;45.90
13591;DHT22;6866;50.778;7.206;2022-09-09T13:39:28;22.50;47.40
13591;DHT22;6866;50.778;7.206;2022-09-09T13:41:53;22.10;47.90
13591;DHT22;6866;50.778;7.206;2022-09-09T13:44:30;21.90;50.30
13591;DHT22;6866;50.778;7.206;2022-09-09T13:47:05;22.10;51.00
13591;DHT22;6866;50.778;7.206;2022-09-09T13:49:31;22.50;49.80
13591;DHT22;6866;50.778;7.206;2022-09-09T13:52:03;22.80;49.70
13591;DHT22;6866;50.778;7.206;2022-09-09T13:54:29;22.70;49.10
13591;DHT22;6866;50.778;7.206;2022-09-09T13:56:56;22.90;49.10
13591;DHT22;6866;50.778;7.206;2022-09-09T13:59:21;23.30;48.20
13591;DHT22;6866;50.778;7.206;2022-09-09T14:01:48;23.10;48.40
13591;DHT22;6866;50.778;7.206;2022-09-09T14:04:18;23.00;48.10
13591;DHT22;6866;50.778;7.206;2022-09-09T14:06:46;23.00;47.60
13591;DHT22;6866;50.778;7.206;2022-09-09T14:09:14;22.80;47.90
13591;DHT22;6866;50.778;7.206;2022-09-09T14:11:40;22.80;47.60
13591;DHT22;6866;50.778;7.206;2022-09-09T14:14:06;23.00;47.10
13591;DHT22;6866;50.778;7.206;2022-09-09T14:16:32;23.20;46.80
13591;DHT22;6866;50.778;7.206;2022-09-09T14:18:58;23.20;47.80
13591;DHT22;6866;50.778;7.206;2022-09-09T14:21:25;23.20;46.90
13591;DHT22;6866;50.778;7.206;2022-09-09T14:23:50;23.00;46.90
13591;DHT22;6866;50.778;7.206;2022-09-09T14:26:18;22.90;48.40
13591;DHT22;6866;50.778;7.206;2022-09-09T14:28:45;22.70;49.30
13591;DHT22;6866;50.778;7.206;2022-09-09T14:31:11;22.70;48.60
13591;DHT22;6866;50.778;7.206;2022-09-09T14:33:38;22.60;49.30
13591;DHT22;6866;50.778;7.206;2022-09-09T14:36:04;22.50;49.30
13591;DHT22;6866;50.778;7.206;2022-09-09T14:38:31;22.90;50.30
13591;DHT22;6866;50.778;7.206;2022-09-09T14:40:59;23.20;48.60
13591;DHT22;6866;50.778;7.206;2022-09-09T14:43:24;23.20;47.90
13591;DHT22;6866;50.778;7.206;2022-09-09T14:45:51;22.90;48.30
13591;DHT22;6866;50.778;7.206;2022-09-09T14:48:17;22.90;47.90
13591;DHT22;6866;50.778;7.206;2022-09-09T14:50:43;22.70;47.80
13591;DHT22;6866;50.778;7.206;2022-09-09T14:53:09;22.60;49.10
13591;DHT22;6866;50.778;7.206;2022-09-09T14:55:36;22.50;48.60
13591;DHT22;6866;50.778;7.206;2022-09-09T14:58:03;22.50;48.90
13591;DHT22;6866;50.778;7.206;2022-09-09T15:00:28;22.80;49.10
13591;DHT22;6866;50.778;7.206;2022-09-09T15:02:54;23.10;48.50
13591;DHT22;6866;50.778;7.206;2022-09-09T15:05:21;23.00;48.80
13591;DHT22;6866;50.778;7.206;2022-09-09T15:07:47;23.00;48.70
13591;DHT22;6866;50.778;7.206;2022-09-09T15:10:14;23.00;48.60
13591;DHT22;6866;50.778;7.206;2022-09-09T15:12:40;22.90;49.20
13591;DHT22;6866;50.778;7.206;2022-09-09T15:15:07;22.60;49.60
13591;DHT22;6866;50.778;7.206;2022-09-09T15:17:33;22.40;49.40
13591;DHT22;6866;50.778;7.206;2022-09-09T15:19:59;22.30;50.50
13591;DHT22;6866;50.778;7.206;2022-09-09T15:22:25;22.10;50.80
13591;DHT22;6866;50.778;7.206;2022-09-09T15:24:50;22.20;51.10
13591;DHT22;6866;50.778;7.206;2022-09-09T15:27:16;22.10;51.50
13591;DHT22;6866;50.778;7.206;2022-09-09T15:29:43;22.00;52.20
13591;DHT22;6866;50.778;7.206;2022-09-09T15:32:09;22.00;52.30
13591;DHT22;6866;50.778;7.206;2022-09-09T15:34:35;22.10;53.10
13591;DHT22;6866;50.778;7.206;2022-09-09T15:37:00;21.80;53.60
13591;DHT22;6866;50.778;7.206;2022-09-09T15:39:29;21.80;53.90
13591;DHT22;6866;50.778;7.206;2022-09-09T15:41:54;21.70;54.80
13591;DHT22;6866;50.778;7.206;2022-09-09T15:44:20;21.50;55.00
13591;DHT22;6866;50.778;7.206;2022-09-09T15:46:51;21.40;55.70
13591;DHT22;6866;50.778;7.206;2022-09-09T15:49:23;21.60;55.50
13591;DHT22;6866;50.778;7.206;2022-09-09T15:51:54;21.50;55.60
13591;DHT22;6866;50.778;7.206;2022-09-09T15:54:22;21.60;56.00
13591;DHT22;6866;50.778;7.206;2022-09-09T15:56:58;21.60;55.90
13591;DHT22;6866;50.778;7.206;2022-09-09T15:59:25;21.40;55.50
13591;DHT22;6866;50.778;7.206;2022-09-09T16:01:51;21.30;56.40
13591;DHT22;6866;50.778;7.206;2022-09-09T16:04:21;21.10;55.60
13591;DHT22;6866;50.778;7.206;2022-09-09T16:06:55;21.20;56.50
13591;DHT22;6866;50.778;7.206;2022-09-09T16:09:21;21.20;56.10
13591;DHT22;6866;50.778;7.206;2022-09-09T16:11:46;21.20;55.90
13591;DHT22;6866;50.778;7.206;2022-09-09T16:14:13;21.10;56.10
13591;DHT22;6866;50.778;7.206;2022-09-09T16:16:41;21.20;56.10
13591;DHT22;6866;50.778;7.206;2022-09-09T16:19:08;21.30;56.10
13591;DHT22;6866;50.778;7.206;2022-09-09T16:21:43;21.10;55.60
13591;DHT22;6866;50.778;7.206;2022-09-09T16:24:11;21.00;56.20
13591;DHT22;6866;50.778;7.206;2022-09-09T16:26:40;21.00;57.30
13591;DHT22;6866;50.778;7.206;2022-09-09T16:29:05;20.90;61.40
13591;DHT22;6866;50.778;7.206;2022-09-09T16:31:31;20.90;61.30
13591;DHT22;6866;50.778;7.206;2022-09-09T16:33:57;20.90;61.90
13591;DHT22;6866;50.778;7.206;2022-09-09T16:36:27;20.90;61.60
13591;DHT22;6866;50.778;7.206;2022-09-09T16:38:59;20.80;61.90
13591;DHT22;6866;50.778;7.206;2022-09-09T16:41:26;20.70;62.90
13591;DHT22;6866;50.778;7.206;2022-09-09T16:44:00;20.60;62.80
13591;DHT22;6866;50.778;7.206;2022-09-09T16:46:28;20.60;63.30
13591;DHT22;6866;50.778;7.206;2022-09-09T16:48:56;20.60;62.50
13591;DHT22;6866;50.778;7.206;2022-09-09T16:51:27;20.50;60.60
13591;DHT22;6866;50.778;7.206;2022-09-09T16:53:53;20.50;59.60
13591;DHT22;6866;50.778;7.206;2022-09-09T16:56:22;20.50;59.30
13591;DHT22;6866;50.778;7.206;2022-09-09T16:58:56;20.40;60.80
13591;DHT22;6866;50.778;7.206;2022-09-09T17:01:22;20.20;61.80
13591;DHT22;6866;50.778;7.206;2022-09-09T17:03:55;20.20;64.00
13591;DHT22;6866;50.778;7.206;2022-09-09T17:06:21;20.10;63.90
13591;DHT22;6866;50.778;7.206;2022-09-09T17:08:47;20.00;66.70
13591;DHT22;6866;50.778;7.206;2022-09-09T17:11:16;19.90;67.00
13591;DHT22;6866;50.778;7.206;2022-09-09T17:13:42;19.90;67.30
13591;DHT22;6866;50.778;7.206;2022-09-09T17:16:09;19.70;67.00
13591;DHT22;6866;50.778;7.206;2022-09-09T17:18:35;19.60;68.10
13591;DHT22;6866;50.778;7.206;2022-09-09T17:21:22;19.60;68.90
13591;DHT22;6866;50.778;7.206;2022-09-09T17:23:48;19.50;67.90
13591;DHT22;6866;50.778;7.206;2022-09-09T17:26:17;19.60;67.90
13591;DHT22;6866;50.778;7.206;2022-09-09T17:28:43;19.50;68.20
13591;DHT22;6866;50.778;7.206;2022-09-09T17:31:10;19.50;68.70
13591;DHT22;6866;50.778;7.206;2022-09-09T17:33:42;19.40;69.10
13591;DHT22;6866;50.778;7.206;2022-09-09T17:36:15;19.30;70.60
13591;DHT22;6866;50.778;7.206;2022-09-09T17:38:42;19.30;70.10
13591;DHT22;6866;50.778;7.206;2022-09-09T17:41:29;19.10;71.60
13591;DHT22;6866;50.778;7.206;2022-09-09T17:43:55;19.10;71.90
13591;DHT22;6866;50.778;7.206;2022-09-09T17:46:25;19.00;71.60
13591;DHT22;6866;50.778;7.206;2022-09-09T17:48:54;19.00;71.80
13591;DHT22;6866;50.778;7.206;2022-09-09T17:51:22;18.90;72.00
13591;DHT22;6866;50.778;7.206;2022-09-09T17:53:54;18.80;71.80
13591;DHT22;6866;50.778;7.206;2022-09-09T17:56:22;19.00;72.20
13591;DHT22;6866;50.778;7.206;2022-09-09T17:58:49;19.00;72.30
13591;DHT22;6866;50.778;7.206;2022-09-09T18:01:18;19.00;72.30
13591;DHT22;6866;50.778;7.206;2022-09-09T18:03:45;19.00;71.70
13591;DHT22;6866;50.778;7.206;2022-09-09T18:06:15;18.90;71.30